Terminal Aerodrome Forecast
Issued by NWS Pocatello, ID

Home | Current Version | Previous Version | Text Only | Print | Product List | Glossary On
Versions: 1 2 3 4 5 6 7 8 9 10 11 12 13 14 15 16 17 18 19 20 21
000
FTUS45 KPIH 211100
TAFIDA
TAF
KIDA 211120Z 2112/2212 21007KT P6SM -SHRA BKN050 OVC100
     FM211800 22010KT P6SM -SHRA VCTS BKN060CB BKN090
     FM220200 VRB06KT P6SM VCTS SCT060 BKN090CB=

USA.gov is the U.S. government's official web portal to all federal, state and local government web resources and services.